Terminal Aerodrome Forecast
Issued by NWS Wakefield, VA

Home | Current Version | Previous Version | Text Only | Print | Product List | Glossary On
Versions: 1 2 3 4 5 6 7 8 9 10 11 12 13 14 15
159
FTUS41 KAKQ 221720
TAFRIC
TAF
KRIC 221720Z 2218/2318 35018G27KT P6SM SKC
     FM222200 36012G19KT P6SM SKC
     FM230000 02006KT P6SM SKC=

USA.gov is the U.S. government's official web portal to all federal, state and local government web resources and services.